Time;durP1;ratioP1;P1;durP2;ratioP2;P2;SDS_P1;SDS_P2;PMS_P1;PMS_P2;Temp;Humidity;BMP_temperature;BMP_pressure;BME280_temperature;BME280_humidity;BME280_pressure;Samples;Min_cycle;Max_cycle;Signal;HPM_P1;HPM_P2
2020/12/17 00:01:14;;;;;;;15.03;13.07;;;;;;;5.41;100.00;98974.59;5014636;28;20210;-78
2020/12/17 00:03:42;;;;;;;18.03;15.70;;;;;;;5.20;100.00;98977.28;5014670;28;20234;-78
2020/12/17 00:06:12;;;;;;;16.23;14.53;;;;;;;5.14;100.00;98988.03;5014252;28;20187;-77
2020/12/17 00:08:40;;;;;;;15.93;13.90;;;;;;;5.26;100.00;98982.22;5012966;28;20624;-77
2020/12/17 00:11:07;;;;;;;21.77;17.00;;;;;;;5.20;100.00;98977.28;5014991;28;20223;-77
2020/12/17 00:13:35;;;;;;;17.10;14.93;;;;;;;5.20;100.00;98982.50;5014472;28;20195;-77
2020/12/17 00:16:03;;;;;;;17.87;15.70;;;;;;;5.17;100.00;98972.19;5013629;28;20233;-77
2020/12/17 00:18:31;;;;;;;18.77;15.83;;;;;;;5.20;100.00;98966.78;5014283;28;20209;-77
2020/12/17 00:20:58;;;;;;;15.30;12.90;;;;;;;5.23;100.00;98969.28;5029955;28;20192;-77
2020/12/17 00:23:25;;;;;;;17.80;15.43;;;;;;;5.02;100.00;98961.56;5014638;28;20201;-77
2020/12/17 00:25:52;;;;;;;15.43;12.40;;;;;;;5.20;100.00;98963.31;5014528;28;20203;-78
2020/12/17 00:28:20;;;;;;;18.00;14.67;;;;;;;5.09;100.00;98958.59;5013260;28;20188;-79
2020/12/17 00:30:47;;;;;;;18.37;14.67;;;;;;;5.11;100.00;98967.22;5013091;28;20237;-77
2020/12/17 00:33:14;;;;;;;20.93;15.67;;;;;;;5.06;100.00;98974.44;5012729;28;20229;-78
2020/12/17 00:35:43;;;;;;;18.07;13.73;;;;;;;5.18;100.00;98960.78;5008133;28;20671;-79
2020/12/17 00:38:10;;;;;;;13.47;12.07;;;;;;;5.28;100.00;98952.50;4996479;28;20215;-77
2020/12/17 00:40:37;;;;;;;19.00;15.43;;;;;;;5.15;100.00;98949.59;5014179;28;20205;-77
2020/12/17 00:43:05;;;;;;;17.53;14.97;;;;;;;5.16;100.00;98952.16;5013725;28;20202;-77
2020/12/17 00:45:32;;;;;;;15.70;13.30;;;;;;;5.17;100.00;98953.84;5014002;28;20194;-77
2020/12/17 00:47:59;;;;;;;15.37;13.03;;;;;;;5.16;100.00;98952.16;5014134;28;20216;-77
2020/12/17 00:50:27;;;;;;;16.07;14.07;;;;;;;5.17;100.00;98956.47;5012977;28;20204;-77
2020/12/17 00:52:54;;;;;;;19.20;14.30;;;;;;;5.12;100.00;98947.97;5013922;28;20651;-80
2020/12/17 00:55:22;;;;;;;14.37;12.87;;;;;;;5.10;100.00;98955.06;5012066;28;20617;-77
2020/12/17 00:57:50;;;;;;;16.87;13.80;;;;;;;5.04;100.00;98965.81;5014012;28;20285;-79
2020/12/17 01:00:18;;;;;;;16.53;13.57;;;;;;;5.02;100.00;98958.94;5013600;28;20245;-77
2020/12/17 01:02:45;;;;;;;14.13;12.63;;;;;;;5.04;100.00;98968.44;5013994;28;20211;-77
2020/12/17 01:05:12;;;;;;;16.60;14.13;;;;;;;5.01;100.00;98973.81;5011379;28;20238;-78
2020/12/17 01:07:39;;;;;;;14.83;12.23;;;;;;;5.04;100.00;98963.19;5011821;28;20299;-79
2020/12/17 01:10:06;;;;;;;18.87;14.67;;;;;;;5.01;100.00;98963.31;5013362;28;20206;-79
2020/12/17 01:12:33;;;;;;;16.87;13.77;;;;;;;5.06;100.00;98963.09;5014032;28;20253;-76
2020/12/17 01:15:00;;;;;;;18.07;15.23;;;;;;;5.05;100.00;98971.91;5013378;28;20201;-77
2020/12/17 01:17:28;;;;;;;17.70;14.63;;;;;;;4.99;100.00;98973.03;5013768;28;20190;-77
2020/12/17 01:19:55;;;;;;;17.67;15.40;;;;;;;5.07;100.00;98972.69;5010737;28;20230;-77
2020/12/17 01:22:23;;;;;;;15.63;13.20;;;;;;;5.07;100.00;98970.06;5012192;28;20686;-77
2020/12/17 01:24:50;;;;;;;17.87;13.80;;;;;;;4.96;100.00;98967.94;5011951;28;20203;-78
2020/12/17 01:27:17;;;;;;;18.50;14.73;;;;;;;4.97;100.00;98969.63;5013536;28;20242;-77
2020/12/17 01:29:44;;;;;;;15.73;14.03;;;;;;;4.80;100.00;98966.91;5012367;28;20213;-77
2020/12/17 01:32:11;;;;;;;15.50;13.20;;;;;;;4.92;100.00;98971.59;5012147;28;20220;-77
2020/12/17 01:34:39;;;;;;;14.43;12.10;;;;;;;4.98;100.00;98976.56;5012432;28;20256;-77
2020/12/17 01:37:19;;;;;;;16.90;14.53;;;;;;;4.84;100.00;98971.09;4999171;28;20648;-77
2020/12/17 01:39:46;;;;;;;17.80;14.50;;;;;;;4.86;100.00;98974.47;5027666;28;20247;-80
2020/12/17 01:42:13;;;;;;;15.63;13.87;;;;;;;4.83;100.00;98976.41;5012869;28;20281;-77
2020/12/17 01:44:40;;;;;;;15.97;12.57;;;;;;;4.84;100.00;98984.19;5011701;28;20203;-78
2020/12/17 01:47:08;;;;;;;14.57;12.33;;;;;;;4.86;100.00;98981.47;5013195;28;20647;-78
2020/12/17 01:49:35;;;;;;;14.17;12.43;;;;;;;4.92;100.00;98983.84;5013022;28;20288;-77
2020/12/17 01:52:03;;;;;;;12.57;11.27;;;;;;;4.93;100.00;98985.53;5013074;28;20286;-77
2020/12/17 01:54:30;;;;;;;16.37;12.90;;;;;;;4.83;100.00;98992.94;5012490;28;20274;-77
2020/12/17 01:57:00;;;;;;;15.37;13.30;;;;;;;4.73;100.00;98990.81;5012512;28;20203;-77
2020/12/17 01:59:29;;;;;;;17.87;13.97;;;;;;;4.67;100.00;98992.78;5013248;28;20209;-77
2020/12/17 02:02:01;;;;;;;17.20;13.77;;;;;;;4.59;100.00;98994.88;5013253;28;20195;-77
2020/12/17 02:04:28;;;;;;;15.23;13.47;;;;;;;4.52;100.00;98997.84;4992859;28;20242;-77
2020/12/17 02:06:55;;;;;;;17.00;14.20;;;;;;;4.48;100.00;98998.88;5008243;28;20198;-77
2020/12/17 02:09:23;;;;;;;14.63;13.07;;;;;;;4.53;100.00;98995.16;5037831;28;20249;-77
2020/12/17 02:11:52;;;;;;;17.30;14.27;;;;;;;4.46;100.00;98998.94;5012864;28;20255;-77
2020/12/17 02:14:20;;;;;;;15.43;13.73;;;;;;;4.51;100.00;98997.00;5012730;28;20191;-77
2020/12/17 02:16:47;;;;;;;15.10;13.40;;;;;;;4.40;100.00;99001.84;5012508;28;20630;-77
2020/12/17 02:19:15;;;;;;;16.13;13.90;;;;;;;4.43;100.00;99003.47;5012696;28;20212;-78
2020/12/17 02:21:42;;;;;;;13.83;12.40;;;;;;;4.50;100.00;98999.66;5010928;28;20206;-77
2020/12/17 02:24:09;;;;;;;12.83;11.47;;;;;;;4.50;100.00;99005.75;5028230;28;20655;-77
2020/12/17 02:26:37;;;;;;;15.10;13.43;;;;;;;4.44;100.00;99015.63;5012350;28;20659;-77
2020/12/17 02:29:04;;;;;;;13.93;11.90;;;;;;;4.41;100.00;99016.59;5012605;28;20202;-79
2020/12/17 02:31:31;;;;;;;15.53;13.47;;;;;;;4.30;100.00;99012.72;5016095;28;20223;-77
2020/12/17 02:33:58;;;;;;;14.47;12.73;;;;;;;4.35;100.00;99016.03;5016419;28;20206;-78
2020/12/17 02:36:25;;;;;;;16.70;13.67;;;;;;;4.24;100.00;99015.63;5016554;28;20208;-77
2020/12/17 02:38:52;;;;;;;15.63;12.57;;;;;;;4.29;100.00;99017.13;5016105;28;20244;-77
2020/12/17 02:41:20;;;;;;;15.83;14.13;;;;;;;4.23;100.00;99008.69;5016277;28;20218;-78
2020/12/17 02:43:48;;;;;;;14.13;12.63;;;;;;;4.26;100.00;99003.34;5016962;28;20206;-77
2020/12/17 02:46:16;;;;;;;16.47;12.97;;;;;;;4.22;100.00;99004.38;5015035;28;20198;-77
2020/12/17 02:48:42;;;;;;;16.60;13.47;;;;;;;4.12;100.00;99008.28;5016419;28;20196;-78
2020/12/17 02:51:11;;;;;;;14.20;12.70;;;;;;;4.23;100.00;99006.94;5016426;28;20195;-77
2020/12/17 02:53:38;;;;;;;13.20;11.23;;;;;;;4.23;100.00;99000.84;5016252;28;20198;-77
2020/12/17 02:56:05;;;;;;;15.10;13.30;;;;;;;4.19;100.00;99007.09;5015829;28;20207;-77
2020/12/17 02:58:32;;;;;;;17.40;14.93;;;;;;;4.09;100.00;99004.91;5016252;28;20229;-78
2020/12/17 03:01:00;;;;;;;15.17;12.87;;;;;;;4.19;100.00;99004.50;5014883;28;20204;-81
2020/12/17 03:03:27;;;;;;;17.73;14.13;;;;;;;4.13;100.00;99004.78;5015905;28;20191;-77
2020/12/17 03:05:54;;;;;;;20.97;15.70;;;;;;;3.98;100.00;99007.09;5013772;28;20253;-80
2020/12/17 03:08:22;;;;;;;19.10;15.30;;;;;;;3.97;100.00;99000.16;5014431;28;20232;-77
2020/12/17 03:10:49;;;;;;;16.53;14.73;;;;;;;4.01;100.00;99004.34;5015842;28;20200;-78
2020/12/17 03:13:17;;;;;;;18.30;15.40;;;;;;;3.97;100.00;99013.22;5014919;28;20197;-78
2020/12/17 03:15:44;;;;;;;18.63;15.90;;;;;;;4.02;100.00;99008.66;5015728;28;20198;-77
2020/12/17 03:18:12;;;;;;;18.70;15.77;;;;;;;4.03;100.00;99012.97;5015902;28;20227;-77
2020/12/17 03:20:39;;;;;;;18.20;16.17;;;;;;;4.03;100.00;99004.28;5015634;28;20208;-77
2020/12/17 03:23:07;;;;;;;16.80;14.83;;;;;;;4.03;100.00;99005.16;5031105;28;20247;-77
2020/12/17 03:25:34;;;;;;;17.10;15.23;;;;;;;4.08;100.00;99013.63;5015460;28;20225;-77
2020/12/17 03:28:01;;;;;;;17.97;15.83;;;;;;;4.02;100.00;99011.28;5015960;28;20194;-77
2020/12/17 03:30:28;;;;;;;17.07;14.70;;;;;;;4.05;100.00;99013.75;5014344;28;20196;-77
2020/12/17 03:32:55;;;;;;;16.83;14.70;;;;;;;4.06;100.00;99015.47;5014752;28;20238;-77
2020/12/17 03:35:23;;;;;;;16.40;14.80;;;;;;;4.14;100.00;99009.06;5015363;28;20199;-77
2020/12/17 03:37:50;;;;;;;19.73;16.60;;;;;;;4.03;100.00;99023.44;5004028;28;20198;-78
2020/12/17 03:40:17;;;;;;;15.53;13.87;;;;;;;4.06;100.00;99015.47;5015562;28;20253;-80
2020/12/17 03:42:44;;;;;;;19.93;16.07;;;;;;;3.93;100.00;99009.03;5014470;28;20228;-77
2020/12/17 03:45:11;;;;;;;18.53;14.40;;;;;;;3.99;100.00;99011.41;5014713;28;20193;-77
2020/12/17 03:47:38;;;;;;;16.80;15.00;;;;;;;3.93;100.00;99010.81;5014921;28;20603;-77
2020/12/17 03:50:05;;;;;;;17.23;15.30;;;;;;;3.92;100.00;99015.19;5015121;28;20203;-77
2020/12/17 03:52:33;;;;;;;16.07;14.10;;;;;;;3.90;100.00;99008.31;5015459;28;20259;-77
2020/12/17 03:55:00;;;;;;;18.60;14.30;;;;;;;3.85;100.00;99011.09;5030255;28;20679;-78
2020/12/17 03:57:27;;;;;;;17.33;14.90;;;;;;;3.86;100.00;99002.38;5015086;28;20207;-77
2020/12/17 03:59:54;;;;;;;18.57;14.63;;;;;;;3.87;100.00;99011.91;5015114;28;20212;-77
2020/12/17 04:02:21;;;;;;;17.50;15.13;;;;;;;3.86;100.00;99012.81;5014889;28;20652;-77
2020/12/17 04:04:48;;;;;;;18.40;14.80;;;;;;;3.83;100.00;99006.84;5014434;28;20239;-80
2020/12/17 04:07:16;;;;;;;17.37;14.90;;;;;;;3.81;100.00;99014.78;5029683;28;20652;-78
2020/12/17 04:09:44;;;;;;;15.27;13.67;;;;;;;3.86;100.00;99011.97;5015256;28;20190;-79
2020/12/17 04:12:11;;;;;;;13.87;12.47;;;;;;;3.92;100.00;99007.34;5014894;28;20198;-78
2020/12/17 04:14:39;;;;;;;13.90;12.50;;;;;;;3.82;100.00;99013.84;5015342;28;20187;-80
2020/12/17 04:17:06;;;;;;;14.27;12.50;;;;;;;3.85;100.00;99013.72;5010356;28;20213;-77
2020/12/17 04:19:33;;;;;;;13.70;11.83;;;;;;;3.90;100.00;99019.59;5013652;28;20670;-80
2020/12/17 04:22:00;;;;;;;13.93;12.43;;;;;;;3.90;100.00;99017.00;5013712;28;20269;-82
2020/12/17 04:24:28;;;;;;;13.23;10.67;;;;;;;3.99;100.00;99021.84;5029603;28;20681;-82
2020/12/17 04:26:57;;;;;;;13.07;10.40;;;;;;;3.98;100.00;99017.56;5009329;28;20206;-84
2020/12/17 04:29:24;;;;;;;12.70;11.33;;;;;;;3.91;100.00;99016.09;5013209;28;20561;-81
2020/12/17 04:31:51;;;;;;;13.67;11.87;;;;;;;3.91;100.00;99021.31;5014711;28;20230;-83
2020/12/17 04:34:18;;;;;;;11.97;10.67;;;;;;;3.93;100.00;99014.25;5016033;28;20230;-79
2020/12/17 04:36:47;;;;;;;12.33;11.03;;;;;;;3.94;100.00;99018.59;5033348;28;20708;-79
2020/12/17 04:39:19;;;;;;;11.90;10.70;;;;;;;3.92;100.00;99017.81;5034070;28;20696;-80
2020/12/17 04:41:47;;;;;;;12.60;9.83;;;;;;;3.90;100.00;99024.00;5013541;28;20255;-80
2020/12/17 04:44:17;;;;;;;13.53;9.90;;;;;;;3.90;100.00;99018.78;5014145;28;20214;-75
2020/12/17 04:46:57;;;;;;;12.03;10.73;;;;;;;3.91;100.00;99021.31;5013951;28;20671;-75
2020/12/17 04:49:30;;;;;;;14.03;12.53;;;;;;;3.84;100.00;99019.03;5029616;28;20193;-80
2020/12/17 04:51:59;;;;;;;12.57;11.00;;;;;;;3.94;100.00;99013.34;5013758;28;20218;-79
2020/12/17 04:54:28;;;;;;;13.20;11.80;;;;;;;4.04;100.00;99006.00;5012867;28;20231;-79
2020/12/17 04:57:06;;;;;;;13.63;12.20;;;;;;;3.95;100.00;99002.00;5013539;28;20211;-79
2020/12/17 04:59:56;;;;;;;12.87;11.00;;;;;;;3.90;100.00;99003.91;5030554;28;20227;-78
2020/12/17 05:02:23;;;;;;;12.20;10.97;;;;;;;3.93;100.00;99005.59;5029188;28;20215;-79
2020/12/17 05:04:52;;;;;;;11.27;10.03;;;;;;;3.94;100.00;99010.75;5026628;28;20231;-81
2020/12/17 05:07:21;;;;;;;9.97;8.97;;;;;;;3.99;100.00;99002.69;5013844;28;20203;-79
2020/12/17 05:09:48;;;;;;;12.87;11.53;;;;;;;3.91;100.00;99005.63;5013999;28;20206;-79
2020/12/17 05:12:17;;;;;;;10.63;9.53;;;;;;;3.95;100.00;99015.06;5029166;28;20187;-78
2020/12/17 05:14:45;;;;;;;10.37;9.37;;;;;;;3.94;100.00;99015.97;5013769;28;20253;-79
2020/12/17 05:17:14;;;;;;;10.03;9.03;;;;;;;3.97;100.00;99023.69;5013833;28;20212;-79
2020/12/17 05:19:42;;;;;;;11.10;10.00;;;;;;;3.97;100.00;99026.31;5013473;28;20245;-79
2020/12/17 05:22:13;;;;;;;10.93;9.80;;;;;;;3.94;100.00;99031.66;5012202;28;20223;-79
2020/12/17 05:24:43;;;;;;;11.43;9.63;;;;;;;3.90;100.00;99035.28;5012658;28;20219;-79
2020/12/17 05:27:10;;;;;;;11.43;10.33;;;;;;;3.88;100.00;99031.91;5013317;28;20282;-79
2020/12/17 05:29:39;;;;;;;11.37;10.13;;;;;;;3.89;100.00;99049.28;4994226;28;20936;-79
2020/12/17 05:32:06;;;;;;;12.13;10.93;;;;;;;3.84;100.00;99056.47;5017828;28;20199;-79
2020/12/17 05:34:35;;;;;;;10.93;9.80;;;;;;;3.81;100.00;99053.97;5010956;28;20191;-79
2020/12/17 05:37:05;;;;;;;10.90;9.80;;;;;;;3.86;100.00;99054.63;5008264;28;20203;-79
2020/12/17 05:39:33;;;;;;;11.13;9.87;;;;;;;3.86;100.00;99057.25;5011270;28;20226;-80
2020/12/17 05:42:01;;;;;;;11.50;9.73;;;;;;;3.93;100.00;99055.25;5012725;28;20209;-79
2020/12/17 05:44:30;;;;;;;13.00;9.57;;;;;;;3.89;100.00;99059.75;5001293;28;20715;-79
2020/12/17 05:46:58;;;;;;;10.00;9.03;;;;;;;3.92;100.00;99064.00;5007604;28;20200;-81
2020/12/17 05:49:27;;;;;;;11.33;9.77;;;;;;;3.80;100.00;99065.34;5000824;28;20210;-79
2020/12/17 05:52:11;;;;;;;11.57;9.93;;;;;;;3.84;100.00;99066.06;4992563;28;20558;-78
2020/12/17 05:54:42;;;;;;;11.73;9.23;;;;;;;3.88;100.00;99068.50;5009814;28;20647;-78
2020/12/17 05:57:11;;;;;;;10.10;8.20;;;;;;;3.93;100.00;99065.72;5024092;28;20205;-86
2020/12/17 05:59:38;;;;;;;10.70;9.03;;;;;;;3.94;100.00;99068.25;5040019;28;20249;-76
2020/12/17 06:02:22;;;;;;;12.40;9.73;;;;;;;3.86;100.00;99078.16;5030870;28;20216;-75
2020/12/17 06:05:08;;;;;;;12.50;10.00;;;;;;;3.80;100.00;99086.25;4995677;28;20227;-78
2020/12/17 06:07:52;;;;;;;11.43;9.70;;;;;;;3.70;100.00;99077.06;4994793;28;20233;-82
2020/12/17 06:10:26;;;;;;;11.20;10.00;;;;;;;3.76;100.00;99089.88;5030723;28;20226;-82
2020/12/17 06:12:56;;;;;;;10.70;9.53;;;;;;;3.78;100.00;99085.47;5015620;28;20219;-78
2020/12/17 06:15:26;;;;;;;10.70;9.60;;;;;;;3.70;100.00;99089.28;5012452;28;20282;-78
2020/12/17 06:17:54;;;;;;;12.17;10.83;;;;;;;3.64;100.00;99094.72;4994264;28;20237;-79
2020/12/17 06:20:22;;;;;;;12.23;10.50;;;;;;;3.66;100.00;99106.81;5012027;28;20236;-79
2020/12/17 06:22:55;;;;;;;11.87;10.57;;;;;;;3.68;100.00;99102.38;5026413;28;20664;-78
2020/12/17 06:25:23;;;;;;;12.27;10.97;;;;;;;3.64;100.00;99102.56;4996371;28;20216;-78
2020/12/17 06:27:52;;;;;;;11.23;10.03;;;;;;;3.80;100.00;99101.91;5007667;28;20293;-78
2020/12/17 06:30:22;;;;;;;12.70;10.57;;;;;;;3.83;100.00;99107.03;4999017;28;20198;-78
2020/12/17 06:32:50;;;;;;;11.10;9.63;;;;;;;3.91;100.00;99109.34;5012517;28;20644;-78
2020/12/17 06:35:25;;;;;;;11.17;8.80;;;;;;;3.80;100.00;99109.75;5011136;28;21034;-78
2020/12/17 06:37:56;;;;;;;10.77;9.63;;;;;;;3.89;100.00;99119.00;5012212;28;20310;-79
2020/12/17 06:40:37;;;;;;;14.43;11.13;;;;;;;3.84;100.00;99108.75;5027210;28;20219;-80
2020/12/17 06:43:11;;;;;;;11.87;10.23;;;;;;;3.81;100.00;99115.84;5010892;28;20199;-79
2020/12/17 06:45:39;;;;;;;10.73;9.37;;;;;;;3.76;100.00;99121.22;5026650;28;20238;-80
2020/12/17 06:48:29;;;;;;;13.10;11.70;;;;;;;3.73;100.00;99125.75;5011333;28;20210;-84
2020/12/17 06:50:56;;;;;;;11.03;9.53;;;;;;;3.76;100.00;99121.22;5011420;28;20198;-79
2020/12/17 06:53:38;;;;;;;15.27;11.43;;;;;;;3.81;100.00;99129.78;5014375;28;20287;-81
2020/12/17 06:56:05;;;;;;;14.10;11.00;;;;;;;3.77;100.00;99128.19;5002975;28;20235;-81
2020/12/17 06:58:32;;;;;;;14.07;11.03;;;;;;;3.75;100.00;99142.22;5009893;28;20221;-83
2020/12/17 07:00:59;;;;;;;13.23;10.63;;;;;;;3.68;100.00;99138.97;5007989;28;20279;-81
2020/12/17 07:03:43;;;;;;;14.47;10.93;;;;;;;3.74;100.00;99143.97;5009458;28;20242;-82
2020/12/17 07:06:13;;;;;;;12.60;9.70;;;;;;;3.84;100.00;99147.97;5007759;28;20211;-78
2020/12/17 07:08:41;;;;;;;11.33;10.07;;;;;;;3.91;100.00;99146.78;5009316;28;20197;-83
2020/12/17 07:11:35;;;;;;;13.40;11.53;;;;;;;3.79;100.00;99152.47;5008902;28;20228;-81
2020/12/17 07:14:03;;;;;;;16.07;11.40;;;;;;;3.86;100.00;99161.81;5005968;28;20610;-81
2020/12/17 07:16:31;;;;;;;14.33;11.90;;;;;;;3.98;100.00;99158.75;5009785;28;20208;-80
2020/12/17 07:19:21;;;;;;;15.13;11.63;;;;;;;4.03;100.00;99161.16;4993830;28;20744;-82
2020/12/17 07:21:59;;;;;;;14.97;11.27;;;;;;;4.09;100.00;99158.31;5012073;28;20199;-79
2020/12/17 07:24:30;;;;;;;13.27;11.87;;;;;;;4.14;100.00;99163.34;5013389;28;20282;-79
2020/12/17 07:27:06;;;;;;;16.97;10.97;;;;;;;4.21;100.00;99175.28;5014798;28;20202;-80
2020/12/17 07:29:39;;;;;;;13.63;10.87;;;;;;;4.26;100.00;99171.59;5032886;28;20219;-79
2020/12/17 07:32:26;;;;;;;13.77;11.23;;;;;;;4.25;100.00;99177.72;5031545;28;20210;-77
2020/12/17 07:34:54;;;;;;;11.67;10.27;;;;;;;4.33;100.00;99180.88;5014832;28;20195;-77
2020/12/17 07:37:40;;;;;;;13.43;10.30;;;;;;;4.32;100.00;99186.19;5013953;28;20199;-77
2020/12/17 07:40:26;;;;;;;13.47;11.03;;;;;;;4.27;100.00;99181.13;4995982;28;20227;-77
2020/12/17 07:43:05;;;;;;;16.37;10.97;;;;;;;4.28;100.00;99185.44;5010983;28;20210;-78
2020/12/17 07:45:50;;;;;;;13.50;10.73;;;;;;;4.27;100.00;99185.50;5013491;28;20272;-85
2020/12/17 07:48:40;;;;;;;12.40;10.10;;;;;;;4.34;100.00;99186.97;5007310;28;20322;-80
2020/12/17 07:51:09;;;;;;;13.63;10.33;;;;;;;4.27;100.00;99190.72;5014121;28;20215;-79
2020/12/17 07:53:37;;;;;;;11.33;9.83;;;;;;;4.36;100.00;99199.06;5014861;28;20221;-80
2020/12/17 07:56:13;;;;;;;11.80;10.33;;;;;;;4.18;100.00;99196.34;5015372;28;20207;-80
2020/12/17 07:58:42;;;;;;;11.47;9.67;;;;;;;4.32;100.00;99210.59;5029767;28;20212;-79
2020/12/17 08:01:11;;;;;;;13.83;9.97;;;;;;;4.36;100.00;99212.16;5012527;28;20279;-77
2020/12/17 08:03:40;;;;;;;12.87;9.33;;;;;;;4.40;100.00;99212.91;5012192;28;20249;-78
2020/12/17 08:06:09;;;;;;;12.23;10.07;;;;;;;4.37;100.00;99213.00;5029022;28;20678;-77
2020/12/17 08:08:36;;;;;;;11.93;9.70;;;;;;;4.44;100.00;99219.69;5014128;28;20585;-76
2020/12/17 08:11:05;;;;;;;12.00;10.40;;;;;;;4.43;100.00;99215.41;5012834;28;20248;-79
2020/12/17 08:13:37;;;;;;;13.77;10.10;;;;;;;4.45;100.00;99217.03;5012329;28;20274;-77
2020/12/17 08:16:06;;;;;;;11.00;9.87;;;;;;;4.54;100.00;99221.06;5029978;28;20197;-80
2020/12/17 08:18:34;;;;;;;15.23;10.07;;;;;;;4.53;100.00;99214.09;5013883;28;20212;-77
2020/12/17 08:21:06;;;;;;;11.80;9.73;;;;;;;4.55;100.00;99217.50;5013152;28;20708;-76
2020/12/17 08:23:34;;;;;;;11.53;9.87;;;;;;;4.48;100.00;99216.91;5014298;28;20197;-75
2020/12/17 08:26:03;;;;;;;12.63;9.83;;;;;;;4.45;100.00;99218.78;5011702;28;20252;-75
2020/12/17 08:28:31;;;;;;;15.23;9.37;;;;;;;4.57;100.00;99224.41;5008927;28;20192;-75
2020/12/17 08:31:08;;;;;;;11.17;9.27;;;;;;;4.57;100.00;99215.69;4993713;28;20663;-76
2020/12/17 08:33:41;;;;;;;12.33;9.77;;;;;;;4.54;100.00;99221.06;5003038;28;20249;-76
2020/12/17 08:36:10;;;;;;;10.03;8.60;;;;;;;4.61;100.00;99212.88;5012405;28;20197;-76
2020/12/17 08:38:38;;;;;;;13.77;9.23;;;;;;;4.64;100.00;99211.91;5031439;28;20247;-78
2020/12/17 08:41:09;;;;;;;8.97;8.07;;;;;;;4.77;100.00;99222.75;5025329;28;20210;-76
2020/12/17 08:43:46;;;;;;;9.23;8.27;;;;;;;4.85;100.00;99221.53;5050395;28;20200;-74
2020/12/17 08:46:17;;;;;;;14.13;8.47;;;;;;;4.88;100.00;99224.03;5008399;28;20277;-77
2020/12/17 08:48:45;;;;;;;10.47;7.40;;;;;;;5.05;100.00;99218.91;5023589;28;20200;-74
2020/12/17 08:51:17;;;;;;;9.47;8.43;;;;;;;5.17;100.00;99222.78;5026519;28;20199;-75
2020/12/17 08:53:46;;;;;;;10.33;6.77;;;;;;;5.29;100.00;99224.88;5029510;28;20202;-74
2020/12/17 08:56:15;;;;;;;8.47;7.20;;;;;;;5.41;100.00;99221.75;5011353;28;20652;-78
2020/12/17 08:58:53;;;;;;;8.03;6.57;;;;;;;5.53;100.00;99220.38;5027718;28;20718;-75
2020/12/17 09:01:26;;;;;;;9.83;7.40;;;;;;;5.52;99.75;99231.75;5010630;28;20679;-75
2020/12/17 09:03:55;;;;;;;9.33;7.97;;;;;;;5.56;99.72;99236.78;5010081;28;20264;-78
2020/12/17 09:06:24;;;;;;;10.53;7.73;;;;;;;5.66;99.55;99242.50;5029292;28;20195;-77
2020/12/17 09:08:52;;;;;;;8.83;7.43;;;;;;;5.66;98.88;99243.34;5012575;28;20298;-77
2020/12/17 09:11:34;;;;;;;8.70;7.80;;;;;;;5.66;99.16;99245.13;5024700;28;20619;-75
2020/12/17 09:14:03;;;;;;;9.47;7.23;;;;;;;5.68;99.51;99259.00;5027292;28;20211;-75
2020/12/17 09:16:33;;;;;;;8.87;6.97;;;;;;;5.77;98.88;99263.84;5010622;28;20545;-76
2020/12/17 09:19:06;;;;;;;9.90;7.30;;;;;;;5.79;98.64;99265.50;5026963;28;20196;-75
2020/12/17 09:21:35;;;;;;;12.20;8.50;;;;;;;5.88;98.27;99273.91;5012363;28;20439;-74
2020/12/17 09:24:04;;;;;;;10.10;8.60;;;;;;;5.75;98.45;99261.28;5011506;28;20902;-75
2020/12/17 09:26:33;;;;;;;10.67;8.13;;;;;;;5.75;98.30;99260.47;5009575;28;20214;-77
2020/12/17 09:29:02;;;;;;;9.37;8.10;;;;;;;5.85;98.30;99264.41;5009812;28;20208;-75
2020/12/17 09:31:33;;;;;;;11.33;7.47;;;;;;;5.94;97.90;99263.13;5018415;28;20267;-75
2020/12/17 09:34:09;;;;;;;10.57;8.27;;;;;;;6.43;95.95;99264.38;5025584;28;20542;-77
2020/12/17 09:36:40;;;;;;;9.00;7.60;;;;;;;6.35;94.84;99265.56;5008938;28;20198;-75
2020/12/17 09:39:10;;;;;;;8.70;6.63;;;;;;;6.26;95.74;99265.16;5009916;28;20671;-76
2020/12/17 09:41:38;;;;;;;7.53;6.83;;;;;;;6.33;95.42;99274.44;4999025;28;20204;-74
2020/12/17 09:44:05;;;;;;;6.83;6.13;;;;;;;6.58;94.98;99279.41;5009740;28;20718;-76
2020/12/17 09:46:46;;;;;;;8.37;7.10;;;;;;;6.70;93.92;99282.31;4997583;28;20196;-76
2020/12/17 09:49:25;;;;;;;8.73;7.00;;;;;;;6.75;93.67;99285.56;5027565;28;20260;-76
2020/12/17 09:52:04;;;;;;;7.33;6.50;;;;;;;6.91;92.40;99290.91;5013300;28;20668;-75
2020/12/17 09:54:32;;;;;;;9.93;6.70;;;;;;;7.05;92.08;99287.63;5013095;28;20192;-75
2020/12/17 09:57:01;;;;;;;7.97;6.60;;;;;;;7.13;91.57;99288.94;4994243;28;20195;-80
2020/12/17 09:59:29;;;;;;;8.07;7.27;;;;;;;7.31;90.39;99280.19;5032776;28;20280;-78
2020/12/17 10:01:58;;;;;;;8.33;6.70;;;;;;;7.59;89.98;99279.63;5005479;28;20564;-75
2020/12/17 10:04:25;;;;;;;7.67;6.87;;;;;;;7.61;90.43;99293.53;5009763;28;20241;-74
2020/12/17 10:06:53;;;;;;;7.80;6.67;;;;;;;7.65;89.88;99292.47;5009670;28;20303;-75
2020/12/17 10:09:21;;;;;;;8.67;6.70;;;;;;;7.76;89.97;99291.91;5010357;28;20708;-77
2020/12/17 10:11:49;;;;;;;8.93;6.27;;;;;;;8.08;89.12;99286.66;5009481;28;20206;-75
2020/12/17 10:14:17;;;;;;;8.60;7.00;;;;;;;8.29;88.77;99292.59;5010479;28;20649;-76
2020/12/17 10:16:45;;;;;;;8.00;6.73;;;;;;;8.14;88.29;99296.00;5009113;28;20609;-75
2020/12/17 10:19:13;;;;;;;9.00;7.00;;;;;;;7.94;90.07;99290.97;5008901;28;20201;-75
2020/12/17 10:21:40;;;;;;;7.23;6.10;;;;;;;7.69;90.63;99285.28;5007905;28;20202;-76
2020/12/17 10:24:08;;;;;;;7.10;5.43;;;;;;;8.15;90.55;99284.56;5008739;28;20197;-76
2020/12/17 10:26:36;;;;;;;6.53;5.93;;;;;;;8.08;89.52;99277.94;5010578;28;20214;-76
2020/12/17 10:29:20;;;;;;;9.37;5.70;;;;;;;8.15;88.94;99279.31;5038829;28;20282;-75
2020/12/17 10:31:48;;;;;;;6.80;5.83;;;;;;;8.18;89.00;99284.41;5010892;28;20279;-76
2020/12/17 10:34:17;;;;;;;8.03;5.97;;;;;;;8.10;89.57;99286.59;5010292;28;20205;-74
2020/12/17 10:36:45;;;;;;;10.23;6.60;;;;;;;7.83;89.78;99288.06;5009264;28;20212;-75
2020/12/17 10:39:15;;;;;;;7.07;5.97;;;;;;;8.04;89.84;99286.91;5016638;28;20206;-75
2020/12/17 10:41:48;;;;;;;7.50;4.70;;;;;;;8.76;87.76;99278.63;4991249;28;20205;-76
2020/12/17 10:44:15;;;;;;;7.03;6.13;;;;;;;9.08;86.52;99272.38;5011299;28;20658;-75
2020/12/17 10:46:42;;;;;;;7.40;5.40;;;;;;;9.50;84.43;99274.31;5010947;28;20288;-74
2020/12/17 10:49:10;;;;;;;7.40;6.47;;;;;;;9.62;84.29;99273.59;5010761;28;20305;-75
2020/12/17 10:51:41;;;;;;;10.57;6.27;;;;;;;9.27;83.98;99278.28;5013111;28;20633;-75
2020/12/17 10:54:08;;;;;;;7.23;5.60;;;;;;;9.52;83.24;99283.84;5029687;28;20198;-76
2020/12/17 10:56:35;;;;;;;10.03;6.63;;;;;;;9.70;82.64;99284.53;5014919;28;20202;-77
2020/12/17 10:59:03;;;;;;;8.73;6.20;;;;;;;9.69;82.75;99280.19;5015185;28;20193;-75
2020/12/17 11:01:30;;;;;;;6.03;5.33;;;;;;;10.17;81.45;99281.69;5014535;28;20231;-76
2020/12/17 11:03:57;;;;;;;6.73;5.40;;;;;;;10.58;80.79;99285.28;5015024;28;20646;-75
2020/12/17 11:06:25;;;;;;;6.60;5.07;;;;;;;9.55;83.75;99288.06;4996964;28;20792;-75
2020/12/17 11:08:53;;;;;;;6.53;5.17;;;;;;;9.48;84.61;99292.88;5029348;28;20215;-76
2020/12/17 11:11:20;;;;;;;8.47;5.73;;;;;;;9.33;84.70;99289.34;5013753;28;20272;-75
2020/12/17 11:13:47;;;;;;;9.30;5.87;;;;;;;9.19;84.74;99305.09;5014501;28;20313;-79
2020/12/17 11:16:15;;;;;;;8.27;5.37;;;;;;;9.18;85.30;99334.19;5011249;28;20659;-75
2020/12/17 11:18:42;;;;;;;7.27;5.43;;;;;;;9.33;85.94;99320.13;5011928;28;20289;-75
2020/12/17 11:21:09;;;;;;;7.47;5.50;;;;;;;9.40;86.71;99316.22;5014772;28;20222;-76
2020/12/17 11:23:36;;;;;;;7.30;5.20;;;;;;;9.36;86.55;99325.22;5008187;28;20202;-75
2020/12/17 11:26:05;;;;;;;5.77;4.80;;;;;;;9.43;86.24;99321.28;5014357;28;20253;-76
2020/12/17 11:28:33;;;;;;;6.57;4.77;;;;;;;9.55;87.25;99320.59;5014024;28;20218;-75
2020/12/17 11:31:01;;;;;;;5.93;4.47;;;;;;;9.70;86.84;99314.44;5029312;28;20286;-75
2020/12/17 11:33:28;;;;;;;8.13;5.23;;;;;;;9.62;85.73;99332.50;5013978;28;20195;-75
2020/12/17 11:35:55;;;;;;;6.20;5.20;;;;;;;9.66;87.50;99323.44;5011934;28;20278;-78